sensor_id;sensor_type;location;lat;lon;timestamp;temperature;humidity
10883;DHT22;5494;51.796;10.952;2022-12-07T00:01:44;1.90;99.90
10883;DHT22;5494;51.796;10.952;2022-12-07T00:04:14;2.00;99.90
10883;DHT22;5494;51.796;10.952;2022-12-07T00:06:45;1.90;99.90
10883;DHT22;5494;51.796;10.952;2022-12-07T00:09:16;1.90;99.90
10883;DHT22;5494;51.796;10.952;2022-12-07T00:11:49;2.00;99.90
10883;DHT22;5494;51.796;10.952;2022-12-07T00:14:20;2.00;99.90
10883;DHT22;5494;51.796;10.952;2022-12-07T00:16:49;2.10;99.90
10883;DHT22;5494;51.796;10.952;2022-12-07T00:19:19;2.10;99.90
10883;DHT22;5494;51.796;10.952;2022-12-07T00:21:47;2.10;99.90
10883;DHT22;5494;51.796;10.952;2022-12-07T00:24:15;2.10;99.90
10883;DHT22;5494;51.796;10.952;2022-12-07T00:26:44;2.10;99.90
10883;DHT22;5494;51.796;10.952;2022-12-07T00:29:15;2.10;99.90
10883;DHT22;5494;51.796;10.952;2022-12-07T00:31:46;2.10;99.90
10883;DHT22;5494;51.796;10.952;2022-12-07T00:34:16;2.10;99.90
10883;DHT22;5494;51.796;10.952;2022-12-07T00:36:46;2.10;99.90
10883;DHT22;5494;51.796;10.952;2022-12-07T00:39:15;2.20;99.90
10883;DHT22;5494;51.796;10.952;2022-12-07T00:41:43;2.20;99.90
10883;DHT22;5494;51.796;10.952;2022-12-07T00:44:11;2.20;99.90
10883;DHT22;5494;51.796;10.952;2022-12-07T00:46:40;2.20;99.90
10883;DHT22;5494;51.796;10.952;2022-12-07T00:49:09;2.20;99.90
10883;DHT22;5494;51.796;10.952;2022-12-07T00:51:38;2.30;99.90
10883;DHT22;5494;51.796;10.952;2022-12-07T00:54:09;2.40;99.90
10883;DHT22;5494;51.796;10.952;2022-12-07T00:56:37;2.50;99.90
10883;DHT22;5494;51.796;10.952;2022-12-07T00:59:05;2.50;99.90
10883;DHT22;5494;51.796;10.952;2022-12-07T01:01:35;2.60;99.90
10883;DHT22;5494;51.796;10.952;2022-12-07T01:04:04;2.60;99.90
10883;DHT22;5494;51.796;10.952;2022-12-07T01:06:34;2.60;99.90
10883;DHT22;5494;51.796;10.952;2022-12-07T01:09:03;2.60;99.90
10883;DHT22;5494;51.796;10.952;2022-12-07T01:11:32;2.60;99.90
10883;DHT22;5494;51.796;10.952;2022-12-07T01:14:01;2.60;99.90
10883;DHT22;5494;51.796;10.952;2022-12-07T01:16:31;2.60;99.90
10883;DHT22;5494;51.796;10.952;2022-12-07T01:19:01;2.70;99.90
10883;DHT22;5494;51.796;10.952;2022-12-07T01:21:35;2.70;99.90
10883;DHT22;5494;51.796;10.952;2022-12-07T01:24:06;2.70;99.90
10883;DHT22;5494;51.796;10.952;2022-12-07T01:26:37;2.80;99.90
10883;DHT22;5494;51.796;10.952;2022-12-07T01:29:05;2.90;99.90
10883;DHT22;5494;51.796;10.952;2022-12-07T01:31:34;2.90;99.90
10883;DHT22;5494;51.796;10.952;2022-12-07T01:34:02;2.90;99.90
10883;DHT22;5494;51.796;10.952;2022-12-07T01:36:32;3.00;99.90
10883;DHT22;5494;51.796;10.952;2022-12-07T01:39:04;3.00;99.90
10883;DHT22;5494;51.796;10.952;2022-12-07T01:41:35;3.00;99.90
10883;DHT22;5494;51.796;10.952;2022-12-07T01:44:20;3.00;99.90
10883;DHT22;5494;51.796;10.952;2022-12-07T01:46:50;3.00;99.90
10883;DHT22;5494;51.796;10.952;2022-12-07T01:49:28;3.00;99.90
10883;DHT22;5494;51.796;10.952;2022-12-07T01:52:13;3.10;99.90
10883;DHT22;5494;51.796;10.952;2022-12-07T01:54:46;3.10;99.90
10883;DHT22;5494;51.796;10.952;2022-12-07T01:57:17;3.10;99.90
10883;DHT22;5494;51.796;10.952;2022-12-07T01:59:49;3.00;99.90
10883;DHT22;5494;51.796;10.952;2022-12-07T02:02:22;3.10;99.90
10883;DHT22;5494;51.796;10.952;2022-12-07T02:04:53;3.10;99.90
10883;DHT22;5494;51.796;10.952;2022-12-07T02:07:26;3.10;99.90
10883;DHT22;5494;51.796;10.952;2022-12-07T02:09:56;3.20;99.90
10883;DHT22;5494;51.796;10.952;2022-12-07T02:12:25;3.20;99.90
10883;DHT22;5494;51.796;10.952;2022-12-07T02:14:53;3.20;99.90
10883;DHT22;5494;51.796;10.952;2022-12-07T02:17:28;3.20;99.90
10883;DHT22;5494;51.796;10.952;2022-12-07T02:20:28;3.20;99.90
10883;DHT22;5494;51.796;10.952;2022-12-07T02:29:34;3.30;99.90
10883;DHT22;5494;51.796;10.952;2022-12-07T02:32:11;3.30;99.90
10883;DHT22;5494;51.796;10.952;2022-12-07T02:34:48;3.30;99.90
10883;DHT22;5494;51.796;10.952;2022-12-07T02:37:25;3.30;99.90
10883;DHT22;5494;51.796;10.952;2022-12-07T02:40:05;3.40;99.90
10883;DHT22;5494;51.796;10.952;2022-12-07T02:42:42;3.40;99.90
10883;DHT22;5494;51.796;10.952;2022-12-07T02:45:17;3.40;99.90
10883;DHT22;5494;51.796;10.952;2022-12-07T02:47:51;3.50;99.90
10883;DHT22;5494;51.796;10.952;2022-12-07T02:50:26;3.50;99.90
10883;DHT22;5494;51.796;10.952;2022-12-07T02:52:55;3.50;99.90
10883;DHT22;5494;51.796;10.952;2022-12-07T02:55:26;3.60;99.90
10883;DHT22;5494;51.796;10.952;2022-12-07T02:58:13;3.60;99.90
10883;DHT22;5494;51.796;10.952;2022-12-07T03:01:04;3.60;99.90
10883;DHT22;5494;51.796;10.952;2022-12-07T03:03:41;3.60;99.90
10883;DHT22;5494;51.796;10.952;2022-12-07T03:06:21;3.50;99.90
10883;DHT22;5494;51.796;10.952;2022-12-07T03:09:00;3.50;99.90
10883;DHT22;5494;51.796;10.952;2022-12-07T03:11:42;3.60;99.90
10883;DHT22;5494;51.796;10.952;2022-12-07T03:14:19;3.60;99.90
10883;DHT22;5494;51.796;10.952;2022-12-07T03:16:55;3.60;99.90
10883;DHT22;5494;51.796;10.952;2022-12-07T03:19:31;3.60;99.90
10883;DHT22;5494;51.796;10.952;2022-12-07T03:22:03;3.60;99.90
10883;DHT22;5494;51.796;10.952;2022-12-07T03:24:39;3.70;99.90
10883;DHT22;5494;51.796;10.952;2022-12-07T03:27:15;3.70;99.90
10883;DHT22;5494;51.796;10.952;2022-12-07T03:29:49;3.80;99.90
10883;DHT22;5494;51.796;10.952;2022-12-07T03:32:25;3.80;99.90
10883;DHT22;5494;51.796;10.952;2022-12-07T03:35:01;3.80;99.90
10883;DHT22;5494;51.796;10.952;2022-12-07T03:37:38;3.80;99.90
10883;DHT22;5494;51.796;10.952;2022-12-07T03:40:12;3.80;99.90
10883;DHT22;5494;51.796;10.952;2022-12-07T03:42:45;3.80;99.90
10883;DHT22;5494;51.796;10.952;2022-12-07T03:45:15;3.80;99.90
10883;DHT22;5494;51.796;10.952;2022-12-07T03:47:48;3.80;99.90
10883;DHT22;5494;51.796;10.952;2022-12-07T03:50:33;3.80;99.90
10883;DHT22;5494;51.796;10.952;2022-12-07T03:53:11;3.80;99.90
10883;DHT22;5494;51.796;10.952;2022-12-07T03:55:47;3.80;99.90
10883;DHT22;5494;51.796;10.952;2022-12-07T03:58:18;3.70;99.90
10883;DHT22;5494;51.796;10.952;2022-12-07T04:00:49;3.70;99.90
10883;DHT22;5494;51.796;10.952;2022-12-07T04:03:19;3.70;99.90
10883;DHT22;5494;51.796;10.952;2022-12-07T04:05:47;3.70;99.90
10883;DHT22;5494;51.796;10.952;2022-12-07T04:08:16;3.80;99.90
10883;DHT22;5494;51.796;10.952;2022-12-07T04:10:44;3.80;99.90
10883;DHT22;5494;51.796;10.952;2022-12-07T04:13:12;3.80;99.90
10883;DHT22;5494;51.796;10.952;2022-12-07T04:15:40;3.90;99.90
10883;DHT22;5494;51.796;10.952;2022-12-07T04:18:08;3.90;99.90
10883;DHT22;5494;51.796;10.952;2022-12-07T04:20:38;4.00;99.90
10883;DHT22;5494;51.796;10.952;2022-12-07T04:23:06;4.00;99.90
10883;DHT22;5494;51.796;10.952;2022-12-07T04:25:34;4.00;99.90
10883;DHT22;5494;51.796;10.952;2022-12-07T04:28:03;4.00;99.90
10883;DHT22;5494;51.796;10.952;2022-12-07T04:30:31;4.00;99.90
10883;DHT22;5494;51.796;10.952;2022-12-07T04:32:59;4.00;99.90
10883;DHT22;5494;51.796;10.952;2022-12-07T04:35:27;4.00;99.90
10883;DHT22;5494;51.796;10.952;2022-12-07T04:37:56;4.00;99.90
10883;DHT22;5494;51.796;10.952;2022-12-07T04:40:24;4.10;99.90
10883;DHT22;5494;51.796;10.952;2022-12-07T04:42:52;4.00;99.90
10883;DHT22;5494;51.796;10.952;2022-12-07T04:45:20;4.00;99.90
10883;DHT22;5494;51.796;10.952;2022-12-07T04:47:48;3.90;99.90
10883;DHT22;5494;51.796;10.952;2022-12-07T04:50:16;3.80;99.90
10883;DHT22;5494;51.796;10.952;2022-12-07T04:52:45;3.80;99.90
10883;DHT22;5494;51.796;10.952;2022-12-07T04:55:14;3.70;99.90
10883;DHT22;5494;51.796;10.952;2022-12-07T04:57:42;3.70;99.90
10883;DHT22;5494;51.796;10.952;2022-12-07T05:00:11;3.60;99.90
10883;DHT22;5494;51.796;10.952;2022-12-07T05:02:39;3.60;99.90
10883;DHT22;5494;51.796;10.952;2022-12-07T05:05:07;3.60;99.90
10883;DHT22;5494;51.796;10.952;2022-12-07T05:07:35;3.60;99.90
10883;DHT22;5494;51.796;10.952;2022-12-07T05:10:05;3.60;99.90
10883;DHT22;5494;51.796;10.952;2022-12-07T05:12:35;3.60;99.90
10883;DHT22;5494;51.796;10.952;2022-12-07T05:15:04;3.60;99.90
10883;DHT22;5494;51.796;10.952;2022-12-07T05:17:33;3.50;99.90
10883;DHT22;5494;51.796;10.952;2022-12-07T05:20:01;3.60;99.90
10883;DHT22;5494;51.796;10.952;2022-12-07T05:22:29;3.60;99.90
10883;DHT22;5494;51.796;10.952;2022-12-07T05:24:57;3.60;99.90
10883;DHT22;5494;51.796;10.952;2022-12-07T05:27:25;3.70;99.90
10883;DHT22;5494;51.796;10.952;2022-12-07T05:29:55;3.80;99.90
10883;DHT22;5494;51.796;10.952;2022-12-07T05:32:23;3.80;99.90
10883;DHT22;5494;51.796;10.952;2022-12-07T05:34:51;3.80;99.90
10883;DHT22;5494;51.796;10.952;2022-12-07T05:37:21;3.90;99.90
10883;DHT22;5494;51.796;10.952;2022-12-07T05:39:49;3.90;99.90
10883;DHT22;5494;51.796;10.952;2022-12-07T05:42:17;4.00;99.90
10883;DHT22;5494;51.796;10.952;2022-12-07T05:44:46;4.00;99.90
10883;DHT22;5494;51.796;10.952;2022-12-07T05:47:15;4.00;99.90
10883;DHT22;5494;51.796;10.952;2022-12-07T05:49:43;4.00;99.90
10883;DHT22;5494;51.796;10.952;2022-12-07T05:52:12;4.00;99.90
10883;DHT22;5494;51.796;10.952;2022-12-07T05:54:40;3.90;99.90
10883;DHT22;5494;51.796;10.952;2022-12-07T05:57:08;3.90;99.90
10883;DHT22;5494;51.796;10.952;2022-12-07T05:59:36;3.90;99.90
10883;DHT22;5494;51.796;10.952;2022-12-07T06:02:04;3.90;99.90
10883;DHT22;5494;51.796;10.952;2022-12-07T06:04:37;3.90;99.90
10883;DHT22;5494;51.796;10.952;2022-12-07T06:07:07;3.90;99.90
10883;DHT22;5494;51.796;10.952;2022-12-07T06:09:38;3.90;99.90
10883;DHT22;5494;51.796;10.952;2022-12-07T06:12:09;3.90;99.90
10883;DHT22;5494;51.796;10.952;2022-12-07T06:14:55;3.90;99.90
10883;DHT22;5494;51.796;10.952;2022-12-07T06:17:24;3.90;99.90
10883;DHT22;5494;51.796;10.952;2022-12-07T06:19:54;3.90;99.90
10883;DHT22;5494;51.796;10.952;2022-12-07T06:22:22;3.90;99.90
10883;DHT22;5494;51.796;10.952;2022-12-07T06:24:50;3.90;99.90
10883;DHT22;5494;51.796;10.952;2022-12-07T06:27:18;3.90;99.90
10883;DHT22;5494;51.796;10.952;2022-12-07T06:29:46;3.90;99.90
10883;DHT22;5494;51.796;10.952;2022-12-07T06:32:14;3.90;99.90
10883;DHT22;5494;51.796;10.952;2022-12-07T06:34:45;4.00;99.90
10883;DHT22;5494;51.796;10.952;2022-12-07T06:37:18;4.00;99.90
10883;DHT22;5494;51.796;10.952;2022-12-07T06:39:46;4.00;99.90
10883;DHT22;5494;51.796;10.952;2022-12-07T06:42:14;4.00;99.90
10883;DHT22;5494;51.796;10.952;2022-12-07T06:44:42;4.10;99.90
10883;DHT22;5494;51.796;10.952;2022-12-07T06:47:11;4.20;99.90
10883;DHT22;5494;51.796;10.952;2022-12-07T06:49:59;4.20;99.90
10883;DHT22;5494;51.796;10.952;2022-12-07T06:52:29;4.10;99.90
10883;DHT22;5494;51.796;10.952;2022-12-07T06:54:58;4.10;99.90
10883;DHT22;5494;51.796;10.952;2022-12-07T06:57:26;4.10;99.90
10883;DHT22;5494;51.796;10.952;2022-12-07T06:59:54;4.10;99.90
10883;DHT22;5494;51.796;10.952;2022-12-07T07:02:22;4.00;99.90
10883;DHT22;5494;51.796;10.952;2022-12-07T07:04:50;3.90;99.90
10883;DHT22;5494;51.796;10.952;2022-12-07T07:07:18;3.80;99.90
10883;DHT22;5494;51.796;10.952;2022-12-07T07:09:48;3.70;99.90
10883;DHT22;5494;51.796;10.952;2022-12-07T07:12:16;3.70;99.90
10883;DHT22;5494;51.796;10.952;2022-12-07T07:14:44;3.70;99.90
10883;DHT22;5494;51.796;10.952;2022-12-07T07:17:14;3.80;99.90
10883;DHT22;5494;51.796;10.952;2022-12-07T07:19:42;3.80;99.90
10883;DHT22;5494;51.796;10.952;2022-12-07T07:22:10;3.90;99.90
10883;DHT22;5494;51.796;10.952;2022-12-07T07:24:38;4.00;99.90
10883;DHT22;5494;51.796;10.952;2022-12-07T07:27:08;4.00;99.90
10883;DHT22;5494;51.796;10.952;2022-12-07T07:29:36;4.00;99.90
10883;DHT22;5494;51.796;10.952;2022-12-07T07:32:05;4.10;99.90
10883;DHT22;5494;51.796;10.952;2022-12-07T07:34:34;4.00;99.90
10883;DHT22;5494;51.796;10.952;2022-12-07T07:37:02;4.00;99.90
10883;DHT22;5494;51.796;10.952;2022-12-07T07:39:30;3.90;99.90
10883;DHT22;5494;51.796;10.952;2022-12-07T07:41:58;4.00;99.90
10883;DHT22;5494;51.796;10.952;2022-12-07T07:44:28;3.90;99.90
10883;DHT22;5494;51.796;10.952;2022-12-07T07:47:01;3.90;99.90
10883;DHT22;5494;51.796;10.952;2022-12-07T07:49:30;3.90;99.90
10883;DHT22;5494;51.796;10.952;2022-12-07T07:51:58;3.80;99.90
10883;DHT22;5494;51.796;10.952;2022-12-07T07:54:26;3.80;99.90
10883;DHT22;5494;51.796;10.952;2022-12-07T07:56:54;3.90;99.90
10883;DHT22;5494;51.796;10.952;2022-12-07T07:59:22;3.90;99.90
10883;DHT22;5494;51.796;10.952;2022-12-07T08:01:52;3.80;99.90
10883;DHT22;5494;51.796;10.952;2022-12-07T08:04:20;3.90;99.90
10883;DHT22;5494;51.796;10.952;2022-12-07T08:06:49;3.90;99.90
10883;DHT22;5494;51.796;10.952;2022-12-07T08:09:17;3.90;99.90
10883;DHT22;5494;51.796;10.952;2022-12-07T08:11:45;3.90;99.90
10883;DHT22;5494;51.796;10.952;2022-12-07T08:14:13;3.90;99.90
10883;DHT22;5494;51.796;10.952;2022-12-07T08:16:41;3.90;99.90
10883;DHT22;5494;51.796;10.952;2022-12-07T08:19:10;4.00;99.90
10883;DHT22;5494;51.796;10.952;2022-12-07T08:21:38;4.10;99.90
10883;DHT22;5494;51.796;10.952;2022-12-07T08:24:07;4.10;99.90
10883;DHT22;5494;51.796;10.952;2022-12-07T08:26:35;4.20;99.90
10883;DHT22;5494;51.796;10.952;2022-12-07T08:29:03;4.30;99.90
10883;DHT22;5494;51.796;10.952;2022-12-07T08:31:31;4.30;99.90
10883;DHT22;5494;51.796;10.952;2022-12-07T08:33:59;4.40;99.90
10883;DHT22;5494;51.796;10.952;2022-12-07T08:36:29;4.40;99.90
10883;DHT22;5494;51.796;10.952;2022-12-07T08:38:59;4.40;99.90
10883;DHT22;5494;51.796;10.952;2022-12-07T08:41:47;4.40;99.90
10883;DHT22;5494;51.796;10.952;2022-12-07T08:44:15;4.40;99.90
10883;DHT22;5494;51.796;10.952;2022-12-07T08:46:47;4.40;99.90
10883;DHT22;5494;51.796;10.952;2022-12-07T08:49:21;4.40;99.90
10883;DHT22;5494;51.796;10.952;2022-12-07T08:51:55;4.50;99.90
10883;DHT22;5494;51.796;10.952;2022-12-07T08:54:24;4.50;99.90
10883;DHT22;5494;51.796;10.952;2022-12-07T08:56:56;4.50;99.90
10883;DHT22;5494;51.796;10.952;2022-12-07T08:59:26;4.50;99.90
10883;DHT22;5494;51.796;10.952;2022-12-07T09:01:56;4.50;99.90
10883;DHT22;5494;51.796;10.952;2022-12-07T09:04:28;4.60;99.90
10883;DHT22;5494;51.796;10.952;2022-12-07T09:06:58;4.60;99.90
10883;DHT22;5494;51.796;10.952;2022-12-07T09:09:26;4.60;99.90
10883;DHT22;5494;51.796;10.952;2022-12-07T09:11:54;4.70;99.90
10883;DHT22;5494;51.796;10.952;2022-12-07T09:14:22;4.80;99.90
10883;DHT22;5494;51.796;10.952;2022-12-07T09:16:52;4.80;99.90
10883;DHT22;5494;51.796;10.952;2022-12-07T09:19:20;4.80;99.90
10883;DHT22;5494;51.796;10.952;2022-12-07T09:21:48;4.80;99.90
10883;DHT22;5494;51.796;10.952;2022-12-07T09:24:17;4.90;99.90
10883;DHT22;5494;51.796;10.952;2022-12-07T09:26:45;4.90;99.90
10883;DHT22;5494;51.796;10.952;2022-12-07T09:29:13;4.90;99.90
10883;DHT22;5494;51.796;10.952;2022-12-07T09:31:41;4.80;99.90
10883;DHT22;5494;51.796;10.952;2022-12-07T09:34:09;4.70;99.90
10883;DHT22;5494;51.796;10.952;2022-12-07T09:36:37;4.80;99.90
10883;DHT22;5494;51.796;10.952;2022-12-07T09:39:05;4.80;99.90
10883;DHT22;5494;51.796;10.952;2022-12-07T09:41:37;4.90;99.90
10883;DHT22;5494;51.796;10.952;2022-12-07T09:44:13;5.00;99.90
10883;DHT22;5494;51.796;10.952;2022-12-07T09:46:46;5.00;99.90
10883;DHT22;5494;51.796;10.952;2022-12-07T09:49:17;5.00;99.90
10883;DHT22;5494;51.796;10.952;2022-12-07T09:51:47;5.00;99.90
10883;DHT22;5494;51.796;10.952;2022-12-07T09:54:27;4.90;99.90
10883;DHT22;5494;51.796;10.952;2022-12-07T09:56:58;5.00;99.90
10883;DHT22;5494;51.796;10.952;2022-12-07T09:59:26;4.90;99.90
10883;DHT22;5494;51.796;10.952;2022-12-07T10:02:23;4.90;99.90
10883;DHT22;5494;51.796;10.952;2022-12-07T10:05:05;4.90;99.90
10883;DHT22;5494;51.796;10.952;2022-12-07T10:07:34;4.90;99.90
10883;DHT22;5494;51.796;10.952;2022-12-07T10:10:04;5.00;99.90
10883;DHT22;5494;51.796;10.952;2022-12-07T10:12:57;5.10;99.90
10883;DHT22;5494;51.796;10.952;2022-12-07T10:15:48;5.10;99.90
10883;DHT22;5494;51.796;10.952;2022-12-07T10:18:29;5.30;99.90
10883;DHT22;5494;51.796;10.952;2022-12-07T10:21:14;5.50;99.90
10883;DHT22;5494;51.796;10.952;2022-12-07T10:24:00;5.60;99.90
10883;DHT22;5494;51.796;10.952;2022-12-07T10:26:32;5.70;99.90
10883;DHT22;5494;51.796;10.952;2022-12-07T10:29:14;5.80;99.90
10883;DHT22;5494;51.796;10.952;2022-12-07T10:31:49;5.90;99.90
10883;DHT22;5494;51.796;10.952;2022-12-07T10:34:24;5.80;99.90
10883;DHT22;5494;51.796;10.952;2022-12-07T10:36:53;5.70;99.90
10883;DHT22;5494;51.796;10.952;2022-12-07T10:39:42;5.70;99.90
10883;DHT22;5494;51.796;10.952;2022-12-07T10:42:19;5.80;99.90
10883;DHT22;5494;51.796;10.952;2022-12-07T10:45:07;5.90;99.90
10883;DHT22;5494;51.796;10.952;2022-12-07T10:47:40;6.00;99.90
10883;DHT22;5494;51.796;10.952;2022-12-07T10:50:38;6.10;99.90
10883;DHT22;5494;51.796;10.952;2022-12-07T10:53:26;6.20;99.90
10883;DHT22;5494;51.796;10.952;2022-12-07T10:56:16;6.30;99.90
10883;DHT22;5494;51.796;10.952;2022-12-07T10:59:06;6.30;99.90
10883;DHT22;5494;51.796;10.952;2022-12-07T11:02:00;6.40;99.90
10883;DHT22;5494;51.796;10.952;2022-12-07T11:04:58;6.50;99.90
10883;DHT22;5494;51.796;10.952;2022-12-07T11:07:42;6.50;99.90
10883;DHT22;5494;51.796;10.952;2022-12-07T11:10:25;6.50;99.90
10883;DHT22;5494;51.796;10.952;2022-12-07T11:13:09;6.60;99.90
10883;DHT22;5494;51.796;10.952;2022-12-07T11:16:06;6.50;99.90
10883;DHT22;5494;51.796;10.952;2022-12-07T11:18:52;6.60;99.90
10883;DHT22;5494;51.796;10.952;2022-12-07T11:21:39;6.70;99.90
10883;DHT22;5494;51.796;10.952;2022-12-07T11:24:17;6.80;99.90
10883;DHT22;5494;51.796;10.952;2022-12-07T11:27:03;6.70;99.90
10883;DHT22;5494;51.796;10.952;2022-12-07T11:30:11;6.70;99.90
10883;DHT22;5494;51.796;10.952;2022-12-07T11:32:55;6.90;99.90
10883;DHT22;5494;51.796;10.952;2022-12-07T11:35:41;7.00;99.90
10883;DHT22;5494;51.796;10.952;2022-12-07T11:38:23;7.00;99.90
10883;DHT22;5494;51.796;10.952;2022-12-07T11:41:00;6.90;99.90
10883;DHT22;5494;51.796;10.952;2022-12-07T11:43:52;6.80;99.90
10883;DHT22;5494;51.796;10.952;2022-12-07T11:46:26;6.70;99.90
10883;DHT22;5494;51.796;10.952;2022-12-07T11:49:08;6.60;99.90
10883;DHT22;5494;51.796;10.952;2022-12-07T11:51:45;6.50;99.90
10883;DHT22;5494;51.796;10.952;2022-12-07T11:54:21;6.40;99.90
10883;DHT22;5494;51.796;10.952;2022-12-07T11:56:56;6.30;99.90
10883;DHT22;5494;51.796;10.952;2022-12-07T11:59:38;6.20;99.90
10883;DHT22;5494;51.796;10.952;2022-12-07T12:02:13;6.30;99.90
10883;DHT22;5494;51.796;10.952;2022-12-07T12:04:51;6.40;99.90
10883;DHT22;5494;51.796;10.952;2022-12-07T12:07:26;6.40;99.90
10883;DHT22;5494;51.796;10.952;2022-12-07T12:10:18;6.50;99.90
10883;DHT22;5494;51.796;10.952;2022-12-07T12:16:39;6.50;99.90
10883;DHT22;5494;51.796;10.952;2022-12-07T12:19:27;6.40;99.90
10883;DHT22;5494;51.796;10.952;2022-12-07T12:22:06;6.30;99.90
10883;DHT22;5494;51.796;10.952;2022-12-07T12:24:43;6.20;99.90
10883;DHT22;5494;51.796;10.952;2022-12-07T12:27:20;6.20;99.90
10883;DHT22;5494;51.796;10.952;2022-12-07T12:29:54;6.10;99.90
10883;DHT22;5494;51.796;10.952;2022-12-07T12:32:33;6.10;99.90
10883;DHT22;5494;51.796;10.952;2022-12-07T12:35:30;6.10;99.90
10883;DHT22;5494;51.796;10.952;2022-12-07T12:44:42;6.00;99.90
10883;DHT22;5494;51.796;10.952;2022-12-07T12:47:40;6.00;99.90
10883;DHT22;5494;51.796;10.952;2022-12-07T12:50:24;5.90;99.90
10883;DHT22;5494;51.796;10.952;2022-12-07T12:52:58;5.80;99.90
10883;DHT22;5494;51.796;10.952;2022-12-07T12:58:48;5.60;99.90
10883;DHT22;5494;51.796;10.952;2022-12-07T13:01:42;5.60;99.90
10883;DHT22;5494;51.796;10.952;2022-12-07T13:04:23;5.60;99.90
10883;DHT22;5494;51.796;10.952;2022-12-07T13:06:54;5.50;99.90
10883;DHT22;5494;51.796;10.952;2022-12-07T13:09:25;5.30;99.90
10883;DHT22;5494;51.796;10.952;2022-12-07T13:12:01;5.30;99.90
10883;DHT22;5494;51.796;10.952;2022-12-07T13:14:55;5.20;99.90
10883;DHT22;5494;51.796;10.952;2022-12-07T13:18:01;5.20;99.90
10883;DHT22;5494;51.796;10.952;2022-12-07T13:20:45;5.10;99.90
10883;DHT22;5494;51.796;10.952;2022-12-07T13:23:18;5.00;99.90
10883;DHT22;5494;51.796;10.952;2022-12-07T13:26:02;5.50;99.90
10883;DHT22;5494;51.796;10.952;2022-12-07T13:28:44;5.00;99.90
10883;DHT22;5494;51.796;10.952;2022-12-07T13:31:32;5.00;99.90
10883;DHT22;5494;51.796;10.952;2022-12-07T13:34:03;5.00;99.90
10883;DHT22;5494;51.796;10.952;2022-12-07T13:36:36;5.00;99.90
10883;DHT22;5494;51.796;10.952;2022-12-07T13:39:17;5.00;99.90
10883;DHT22;5494;51.796;10.952;2022-12-07T13:41:50;5.60;99.90
10883;DHT22;5494;51.796;10.952;2022-12-07T13:44:20;5.00;99.90
10883;DHT22;5494;51.796;10.952;2022-12-07T13:46:55;5.10;99.90
10883;DHT22;5494;51.796;10.952;2022-12-07T13:49:29;5.10;99.90
10883;DHT22;5494;51.796;10.952;2022-12-07T13:52:16;5.10;99.90
10883;DHT22;5494;51.796;10.952;2022-12-07T13:54:49;5.00;99.90
10883;DHT22;5494;51.796;10.952;2022-12-07T13:57:25;4.70;99.90
10883;DHT22;5494;51.796;10.952;2022-12-07T13:59:54;4.50;99.90
10883;DHT22;5494;51.796;10.952;2022-12-07T14:02:27;4.20;99.90
10883;DHT22;5494;51.796;10.952;2022-12-07T14:05:10;4.00;99.90
10883;DHT22;5494;51.796;10.952;2022-12-07T14:07:52;3.90;99.90
10883;DHT22;5494;51.796;10.952;2022-12-07T14:10:25;3.80;99.90
10883;DHT22;5494;51.796;10.952;2022-12-07T14:12:55;3.80;99.90
10883;DHT22;5494;51.796;10.952;2022-12-07T14:15:30;3.80;99.90
10883;DHT22;5494;51.796;10.952;2022-12-07T14:18:02;3.80;99.90
10883;DHT22;5494;51.796;10.952;2022-12-07T14:20:33;3.80;99.90
10883;DHT22;5494;51.796;10.952;2022-12-07T14:23:04;3.80;99.90
10883;DHT22;5494;51.796;10.952;2022-12-07T14:25:45;3.80;99.90
10883;DHT22;5494;51.796;10.952;2022-12-07T14:28:28;3.80;99.90
10883;DHT22;5494;51.796;10.952;2022-12-07T14:30:57;3.80;99.90
10883;DHT22;5494;51.796;10.952;2022-12-07T14:33:27;3.80;99.90
10883;DHT22;5494;51.796;10.952;2022-12-07T14:35:56;3.80;99.90
10883;DHT22;5494;51.796;10.952;2022-12-07T14:38:25;3.90;99.90
10883;DHT22;5494;51.796;10.952;2022-12-07T14:40:54;4.00;99.90
10883;DHT22;5494;51.796;10.952;2022-12-07T14:43:46;4.00;99.90
10883;DHT22;5494;51.796;10.952;2022-12-07T14:46:38;4.00;99.90
10883;DHT22;5494;51.796;10.952;2022-12-07T14:49:09;4.00;99.90
10883;DHT22;5494;51.796;10.952;2022-12-07T14:51:58;4.10;99.90
10883;DHT22;5494;51.796;10.952;2022-12-07T14:54:46;4.20;99.90
10883;DHT22;5494;51.796;10.952;2022-12-07T14:57:14;4.20;99.90
10883;DHT22;5494;51.796;10.952;2022-12-07T14:59:42;4.10;99.90
10883;DHT22;5494;51.796;10.952;2022-12-07T15:02:12;4.20;99.90
10883;DHT22;5494;51.796;10.952;2022-12-07T15:04:43;4.10;99.90
10883;DHT22;5494;51.796;10.952;2022-12-07T15:07:16;4.10;99.90
10883;DHT22;5494;51.796;10.952;2022-12-07T15:09:47;4.10;99.90
10883;DHT22;5494;51.796;10.952;2022-12-07T15:12:16;4.10;99.90
10883;DHT22;5494;51.796;10.952;2022-12-07T15:14:44;4.00;99.90
10883;DHT22;5494;51.796;10.952;2022-12-07T15:17:12;4.00;99.90
10883;DHT22;5494;51.796;10.952;2022-12-07T15:19:57;4.00;99.90
10883;DHT22;5494;51.796;10.952;2022-12-07T15:22:25;3.90;99.90
10883;DHT22;5494;51.796;10.952;2022-12-07T15:24:53;3.90;99.90
10883;DHT22;5494;51.796;10.952;2022-12-07T15:27:21;4.00;99.90
10883;DHT22;5494;51.796;10.952;2022-12-07T15:29:52;4.00;99.90
10883;DHT22;5494;51.796;10.952;2022-12-07T15:32:20;4.00;99.90
10883;DHT22;5494;51.796;10.952;2022-12-07T15:34:49;4.00;99.90
10883;DHT22;5494;51.796;10.952;2022-12-07T15:37:19;4.00;99.90
10883;DHT22;5494;51.796;10.952;2022-12-07T15:39:47;4.00;99.90
10883;DHT22;5494;51.796;10.952;2022-12-07T15:42:15;4.00;99.90
10883;DHT22;5494;51.796;10.952;2022-12-07T15:44:44;4.00;99.90
10883;DHT22;5494;51.796;10.952;2022-12-07T15:47:35;4.00;99.90
10883;DHT22;5494;51.796;10.952;2022-12-07T15:50:24;4.10;99.90
10883;DHT22;5494;51.796;10.952;2022-12-07T15:52:54;4.10;99.90
10883;DHT22;5494;51.796;10.952;2022-12-07T15:55:22;4.00;99.90
10883;DHT22;5494;51.796;10.952;2022-12-07T15:57:50;4.00;99.90
10883;DHT22;5494;51.796;10.952;2022-12-07T16:00:19;4.10;99.90
10883;DHT22;5494;51.796;10.952;2022-12-07T16:02:47;4.00;99.90
10883;DHT22;5494;51.796;10.952;2022-12-07T16:05:16;4.00;99.90
10883;DHT22;5494;51.796;10.952;2022-12-07T16:07:44;3.90;99.90
10883;DHT22;5494;51.796;10.952;2022-12-07T16:10:14;3.80;99.90
10883;DHT22;5494;51.796;10.952;2022-12-07T16:12:43;3.80;99.90
10883;DHT22;5494;51.796;10.952;2022-12-07T16:15:11;3.80;99.90
10883;DHT22;5494;51.796;10.952;2022-12-07T16:17:39;3.80;99.90
10883;DHT22;5494;51.796;10.952;2022-12-07T16:20:08;3.80;99.90
10883;DHT22;5494;51.796;10.952;2022-12-07T16:22:37;3.80;99.90
10883;DHT22;5494;51.796;10.952;2022-12-07T16:25:05;3.80;99.90
10883;DHT22;5494;51.796;10.952;2022-12-07T16:27:35;3.70;99.90
10883;DHT22;5494;51.796;10.952;2022-12-07T16:30:04;3.80;99.90
10883;DHT22;5494;51.796;10.952;2022-12-07T16:32:33;3.70;99.90
10883;DHT22;5494;51.796;10.952;2022-12-07T16:35:01;3.70;99.90
10883;DHT22;5494;51.796;10.952;2022-12-07T16:37:33;3.70;99.90
10883;DHT22;5494;51.796;10.952;2022-12-07T16:40:01;3.70;99.90
10883;DHT22;5494;51.796;10.952;2022-12-07T16:42:31;3.70;99.90
10883;DHT22;5494;51.796;10.952;2022-12-07T16:45:03;3.70;99.90